sensor_id;sensor_type;location;lat;lon;timestamp;temperature;humidity
73875;HTU21D;62209;47.568;7.558;2023-12-20T00:11:00;3.95;104.21
73875;HTU21D;62209;47.568;7.558;2023-12-20T00:26:05;3.88;104.99
73875;HTU21D;62209;47.568;7.558;2023-12-20T00:41:11;3.83;106.06
73875;HTU21D;62209;47.568;7.558;2023-12-20T00:56:16;3.83;105.79
73875;HTU21D;62209;47.568;7.558;2023-12-20T01:11:22;3.75;106.44
73875;HTU21D;62209;47.568;7.558;2023-12-20T01:26:27;3.91;106.37
73875;HTU21D;62209;47.568;7.558;2023-12-20T01:41:33;3.90;108.02
73875;HTU21D;62209;47.568;7.558;2023-12-20T01:56:38;3.79;109.59
73875;HTU21D;62209;47.568;7.558;2023-12-20T02:11:45;3.84;109.99
73875;HTU21D;62209;47.568;7.558;2023-12-20T02:26:50;3.80;111.23
73875;HTU21D;62209;47.568;7.558;2023-12-20T02:41:56;3.93;111.71
73875;HTU21D;62209;47.568;7.558;2023-12-20T02:57:02;4.13;112.21
73875;HTU21D;62209;47.568;7.558;2023-12-20T03:12:08;4.17;112.40
73875;HTU21D;62209;47.568;7.558;2023-12-20T03:27:13;4.24;113.16
73875;HTU21D;62209;47.568;7.558;2023-12-20T03:42:19;4.39;113.61
73875;HTU21D;62209;47.568;7.558;2023-12-20T03:57:25;4.45;113.94
73875;HTU21D;62209;47.568;7.558;2023-12-20T04:12:31;4.43;113.97
73875;HTU21D;62209;47.568;7.558;2023-12-20T04:27:37;4.43;114.69
73875;HTU21D;62209;47.568;7.558;2023-12-20T04:42:42;4.56;114.74
73875;HTU21D;62209;47.568;7.558;2023-12-20T04:57:48;4.46;114.82
73875;HTU21D;62209;47.568;7.558;2023-12-20T05:12:54;4.50;114.98
73875;HTU21D;62209;47.568;7.558;2023-12-20T05:27:59;4.75;115.04
73875;HTU21D;62209;47.568;7.558;2023-12-20T05:43:05;5.17;114.54
73875;HTU21D;62209;47.568;7.558;2023-12-20T05:58:10;6.05;113.55
73875;HTU21D;62209;47.568;7.558;2023-12-20T06:13:16;6.20;112.93
73875;HTU21D;62209;47.568;7.558;2023-12-20T06:28:22;6.24;112.01
73875;HTU21D;62209;47.568;7.558;2023-12-20T06:43:28;6.16;112.10
73875;HTU21D;62209;47.568;7.558;2023-12-20T06:58:51;6.15;111.57
73875;HTU21D;62209;47.568;7.558;2023-12-20T07:13:57;6.26;110.91
73875;HTU21D;62209;47.568;7.558;2023-12-20T07:29:04;6.24;110.90
73875;HTU21D;62209;47.568;7.558;2023-12-20T07:44:10;6.28;110.42
73875;HTU21D;62209;47.568;7.558;2023-12-20T07:59:15;6.26;110.94
73875;HTU21D;62209;47.568;7.558;2023-12-20T08:14:34;6.43;110.06
73875;HTU21D;62209;47.568;7.558;2023-12-20T08:29:40;6.46;109.84
73875;HTU21D;62209;47.568;7.558;2023-12-20T08:44:48;6.61;109.10
73875;HTU21D;62209;47.568;7.558;2023-12-20T08:59:53;6.65;108.15
73875;HTU21D;62209;47.568;7.558;2023-12-20T09:14:59;6.70;106.44
73875;HTU21D;62209;47.568;7.558;2023-12-20T09:30:07;7.02;105.21
73875;HTU21D;62209;47.568;7.558;2023-12-20T09:45:13;7.20;100.53
73875;HTU21D;62209;47.568;7.558;2023-12-20T10:00:21;6.98;98.04
73875;HTU21D;62209;47.568;7.558;2023-12-20T10:15:27;7.42;97.70
73875;HTU21D;62209;47.568;7.558;2023-12-20T10:30:32;8.20;96.17
73875;HTU21D;62209;47.568;7.558;2023-12-20T10:45:39;8.53;94.01
73875;HTU21D;62209;47.568;7.558;2023-12-20T11:00:47;7.86;92.57
73875;HTU21D;62209;47.568;7.558;2023-12-20T11:16:00;7.54;93.12
73875;HTU21D;62209;47.568;7.558;2023-12-20T11:31:06;7.35;94.04
73875;HTU21D;62209;47.568;7.558;2023-12-20T11:46:14;7.91;93.91
73875;HTU21D;62209;47.568;7.558;2023-12-20T12:01:21;7.74;91.72
73875;HTU21D;62209;47.568;7.558;2023-12-20T12:16:26;6.93;92.40
73875;HTU21D;62209;47.568;7.558;2023-12-20T12:31:33;6.63;91.99
73875;HTU21D;62209;47.568;7.558;2023-12-20T12:46:39;6.68;92.72
73875;HTU21D;62209;47.568;7.558;2023-12-20T13:01:45;6.58;93.28
73875;HTU21D;62209;47.568;7.558;2023-12-20T13:16:51;6.85;89.95
73875;HTU21D;62209;47.568;7.558;2023-12-20T13:31:57;6.20;90.50
73875;HTU21D;62209;47.568;7.558;2023-12-20T13:47:03;6.04;91.63
73875;HTU21D;62209;47.568;7.558;2023-12-20T14:02:09;5.99;92.40
73875;HTU21D;62209;47.568;7.558;2023-12-20T14:17:15;8.57;84.77
73875;HTU21D;62209;47.568;7.558;2023-12-20T14:32:21;6.28;90.28
73875;HTU21D;62209;47.568;7.558;2023-12-20T14:47:27;6.21;90.28
73875;HTU21D;62209;47.568;7.558;2023-12-20T15:02:33;8.01;84.03
73875;HTU21D;62209;47.568;7.558;2023-12-20T15:17:38;5.78;91.66
73875;HTU21D;62209;47.568;7.558;2023-12-20T15:32:44;5.56;93.26
73875;HTU21D;62209;47.568;7.558;2023-12-20T15:47:50;5.24;93.92
73875;HTU21D;62209;47.568;7.558;2023-12-20T16:02:56;4.74;95.74
73875;HTU21D;62209;47.568;7.558;2023-12-20T16:18:02;4.36;96.48
73875;HTU21D;62209;47.568;7.558;2023-12-20T16:33:12;4.04;96.88
73875;HTU21D;62209;47.568;7.558;2023-12-20T16:48:18;3.63;97.86
73875;HTU21D;62209;47.568;7.558;2023-12-20T17:03:24;3.75;97.68
73875;HTU21D;62209;47.568;7.558;2023-12-20T17:18:30;3.46;98.79
73875;HTU21D;62209;47.568;7.558;2023-12-20T17:33:36;3.73;98.77
73875;HTU21D;62209;47.568;7.558;2023-12-20T17:48:42;3.64;98.95
73875;HTU21D;62209;47.568;7.558;2023-12-20T18:03:48;3.79;98.93
73875;HTU21D;62209;47.568;7.558;2023-12-20T18:18:53;4.03;98.04
73875;HTU21D;62209;47.568;7.558;2023-12-20T18:33:59;4.28;97.79
73875;HTU21D;62209;47.568;7.558;2023-12-20T18:49:09;4.63;96.75
73875;HTU21D;62209;47.568;7.558;2023-12-20T19:04:15;4.52;97.38
73875;HTU21D;62209;47.568;7.558;2023-12-20T19:19:21;4.54;97.42
73875;HTU21D;62209;47.568;7.558;2023-12-20T19:34:27;4.90;96.37
73875;HTU21D;62209;47.568;7.558;2023-12-20T19:49:34;4.57;98.32
73875;HTU21D;62209;47.568;7.558;2023-12-20T20:04:40;4.74;97.65
73875;HTU21D;62209;47.568;7.558;2023-12-20T20:19:46;5.05;95.94
73875;HTU21D;62209;47.568;7.558;2023-12-20T20:34:52;5.37;95.60
73875;HTU21D;62209;47.568;7.558;2023-12-20T20:49:58;5.32;95.72
73875;HTU21D;62209;47.568;7.558;2023-12-20T21:05:04;5.33;95.75
73875;HTU21D;62209;47.568;7.558;2023-12-20T21:20:12;5.55;95.31
73875;HTU21D;62209;47.568;7.558;2023-12-20T21:35:18;5.15;97.20
73875;HTU21D;62209;47.568;7.558;2023-12-20T21:50:23;4.95;99.49
73875;HTU21D;62209;47.568;7.558;2023-12-20T22:05:29;4.97;99.32
73875;HTU21D;62209;47.568;7.558;2023-12-20T22:20:35;5.05;99.89
73875;HTU21D;62209;47.568;7.558;2023-12-20T22:35:43;5.02;100.22
73875;HTU21D;62209;47.568;7.558;2023-12-20T22:50:49;4.98;101.02
73875;HTU21D;62209;47.568;7.558;2023-12-20T23:05:54;4.94;102.24
73875;HTU21D;62209;47.568;7.558;2023-12-20T23:21:00;4.91;103.43
73875;HTU21D;62209;47.568;7.558;2023-12-20T23:36:06;4.94;103.56
73875;HTU21D;62209;47.568;7.558;2023-12-20T23:51:12;4.97;103.86
